Time,TemperatureF,DewpointF,PressureIn,WindDirection,WindDirectionDegrees,WindSpeedMPH,WindSpeedGustMPH,Humidity,HourlyPrecipIn,Conditions,Clouds,dailyrainin,SoftwareType,DateUTC
2013-07-10 00:00:00,82.4,75.6,30.07,SSW,202,0.0,0.0,80,0.00,,SCT200,0.00,VWS V13.01,2013-07-10 05:00:00,
2013-07-10 00:15:00,82.4,75.6,30.07,SSW,202,0.0,0.0,80,0.00,,SCT200,0.00,VWS V13.01,2013-07-10 05:15:00,
2013-07-10 00:30:00,82.4,75.6,30.06,SSW,202,0.0,0.0,80,0.00,,SCT200,0.00,VWS V13.01,2013-07-10 05:30:00,
2013-07-10 00:45:00,82.4,75.6,30.06,SSW,202,0.0,0.0,80,0.00,,SCT200,0.00,VWS V13.01,2013-07-10 05:45:00,
2013-07-10 01:00:00,82.4,75.6,30.05,SSW,202,0.0,0.0,80,0.00,,SCT200,0.00,VWS V13.01,2013-07-10 06:00:00,
2013-07-10 01:15:00,82.4,75.6,30.05,SSW,202,0.0,0.0,80,0.00,,SCT200,0.00,VWS V13.01,2013-07-10 06:15:00,
2013-07-10 01:30:00,82.4,75.6,30.05,SSW,202,0.0,0.0,80,0.00,,SCT200,0.00,VWS V13.01,2013-07-10 06:30:00,
2013-07-10 01:45:00,82.4,75.6,30.05,SSW,202,0.0,0.0,80,0.00,,SCT200,0.00,VWS V13.01,2013-07-10 06:45:00,
2013-07-10 02:00:00,82.4,75.6,30.05,SSW,202,0.0,0.0,80,0.00,,SCT200,0.00,VWS V13.01,2013-07-10 07:00:00,
2013-07-10 02:15:00,82.4,75.6,30.05,SSW,202,0.0,0.0,80,0.00,,SCT200,0.00,VWS V13.01,2013-07-10 07:15:00,
2013-07-10 02:30:00,82.4,75.6,30.05,SSW,202,0.0,0.0,80,0.00,,SCT200,0.00,VWS V13.01,2013-07-10 07:30:00,
2013-07-10 02:45:00,82.4,75.6,30.05,SSW,202,0.0,0.0,80,0.00,,SCT200,0.00,VWS V13.01,2013-07-10 07:45:00,
2013-07-10 03:00:00,82.4,75.6,30.05,SSW,202,0.0,0.0,80,0.00,,SCT200,0.00,VWS V13.01,2013-07-10 08:00:00,
2013-07-10 03:15:00,82.4,75.6,30.05,SSW,202,0.0,0.0,80,0.00,,SCT200,0.00,VWS V13.01,2013-07-10 08:15:00,
2013-07-10 03:30:00,82.4,75.6,30.05,SSW,202,0.0,0.0,80,0.00,,SCT200,0.00,VWS V13.01,2013-07-10 08:30:00,
2013-07-10 03:45:00,82.4,75.6,30.05,SSW,202,0.0,0.0,80,0.00,,SCT200,0.00,VWS V13.01,2013-07-10 08:45:00,
2013-07-10 04:00:00,82.4,75.6,30.05,SSW,202,0.0,0.0,80,0.00,,SCT200,0.00,VWS V13.01,2013-07-10 09:00:00,
2013-07-10 04:15:00,82.4,75.6,30.05,SSW,202,0.0,0.0,80,0.00,,SCT200,0.00,VWS V13.01,2013-07-10 09:15:00,
2013-07-10 04:30:00,82.4,75.6,30.04,SSW,202,0.0,0.0,80,0.00,,SCT200,0.00,VWS V13.01,2013-07-10 09:30:00,
2013-07-10 04:45:00,82.4,75.6,30.05,SSW,202,0.0,0.0,80,0.00,,SCT200,0.00,VWS V13.01,2013-07-10 09:45:00,
2013-07-10 05:00:00,82.4,75.6,30.05,SSW,202,0.0,0.0,80,0.00,,SCT200,0.00,VWS V13.01,2013-07-10 10:00:00,
2013-07-10 05:15:00,82.4,75.6,30.06,SSW,202,0.0,0.0,80,0.00,,SCT200,0.00,VWS V13.01,2013-07-10 10:15:00,
2013-07-10 05:30:00,82.4,75.6,30.06,SSW,202,0.0,0.0,80,0.00,,SCT200,0.00,VWS V13.01,2013-07-10 10:30:00,
2013-07-10 05:45:00,82.4,75.6,30.06,SSW,202,0.0,0.0,80,0.00,,SCT200,0.00,VWS V13.01,2013-07-10 10:45:00,
2013-07-10 06:00:00,82.4,75.6,30.06,SSW,202,0.0,0.0,80,0.00,,SCT200,0.00,VWS V13.01,2013-07-10 11:00:00,
2013-07-10 06:15:00,82.4,75.6,30.06,SSW,202,0.0,0.0,80,0.00,,SCT200,0.00,VWS V13.01,2013-07-10 11:15:00,
2013-07-10 06:30:00,82.4,75.6,30.06,SSW,202,0.0,0.0,80,0.00,,SCT200,0.00,VWS V13.01,2013-07-10 11:30:00,
2013-07-10 06:45:00,82.4,75.6,30.06,SSW,202,0.0,0.0,80,0.00,,SCT200,0.00,VWS V13.01,2013-07-10 11:45:00,
2013-07-10 07:00:00,82.4,75.6,30.06,SSW,202,0.0,0.0,80,0.00,,SCT200,0.00,VWS V13.01,2013-07-10 12:00:00,
2013-07-10 07:15:00,82.4,75.6,30.07,SSW,202,0.0,0.0,80,0.00,,SCT200,0.00,VWS V13.01,2013-07-10 12:15:00,
2013-07-10 07:30:00,82.4,75.6,30.07,SSW,202,0.0,0.0,80,0.00,,SCT200,0.00,VWS V13.01,2013-07-10 12:30:00,
2013-07-10 07:45:00,77.7,76.2,30.08,SSW,202,0.0,0.0,95,0.00,,SCT200,0.00,VWS V13.01,2013-07-10 12:45:00,
2013-07-10 08:00:00,78.4,76.8,30.08,SSW,202,0.0,0.0,95,0.00,,SCT200,0.00,VWS V13.01,2013-07-10 13:00:00,
2013-07-10 08:15:00,78.9,76.7,30.08,SSW,202,0.0,0.0,93,0.00,,SCT200,0.00,VWS V13.01,2013-07-10 13:15:00,
2013-07-10 08:30:00,79.2,76.7,30.08,SSW,202,0.0,2.0,92,0.00,,SCT200,0.00,VWS V13.01,2013-07-10 13:30:00,
2013-07-10 08:45:00,79.6,77.1,30.08,SSW,204,0.0,1.0,92,0.00,,SCT200,0.00,VWS V13.01,2013-07-10 13:45:00,
2013-07-10 09:00:00,80.2,77.3,30.08,SSW,203,0.0,1.0,91,0.00,,SCT200,0.00,VWS V13.01,2013-07-10 14:00:00,
2013-07-10 09:15:00,81.0,77.8,30.07,SSW,207,0.0,2.0,90,0.00,,SCT200,0.00,VWS V13.01,2013-07-10 14:15:00,
2013-07-10 09:30:00,82.9,78.6,30.07,SSW,209,0.0,2.0,87,0.00,,SCT200,0.00,VWS V13.01,2013-07-10 14:30:00,
2013-07-10 09:45:00,84.8,78.3,30.08,NNW,344,0.0,5.0,81,0.00,,SCT200,0.00,VWS V13.01,2013-07-10 14:45:00,
2013-07-10 10:00:00,86.4,78.7,30.08,NNW,344,0.0,1.0,78,0.00,,SCT200,0.00,VWS V13.01,2013-07-10 15:00:00,
2013-07-10 10:15:00,87.4,79.3,30.08,NNW,341,0.0,1.0,77,0.00,,SCT200,0.00,VWS V13.01,2013-07-10 15:15:00,
2013-07-10 10:30:00,86.6,78.5,30.08,SSW,196,0.0,4.0,77,0.00,,SCT200,0.00,VWS V13.01,2013-07-10 15:30:00,
2013-07-10 10:45:00,88.3,79.0,30.07,NNW,327,0.0,3.0,74,0.00,,SCT200,0.00,VWS V13.01,2013-07-10 15:45:00,
2013-07-10 11:00:00,89.5,79.3,30.07,NNW,331,0.0,1.0,72,0.00,,SCT200,0.00,VWS V13.01,2013-07-10 16:00:00,
2013-07-10 11:15:00,88.4,77.4,30.07,NNW,331,0.0,1.0,70,0.00,,SCT200,0.00,VWS V13.01,2013-07-10 16:15:00,
2013-07-10 11:30:00,88.2,77.2,30.06,SW,231,0.0,5.0,70,0.00,,SCT200,0.00,VWS V13.01,2013-07-10 16:30:00,
2013-07-10 11:45:00,88.7,78.1,30.06,WSW,248,0.0,5.0,71,0.00,,SCT200,0.00,VWS V13.01,2013-07-10 16:45:00,
2013-07-10 12:00:00,89.1,77.2,30.05,WSW,244,0.0,2.0,68,0.00,,SCT200,0.00,VWS V13.01,2013-07-10 17:00:00,
2013-07-10 12:15:00,89.4,77.0,30.04,SSW,198,0.0,6.0,67,0.00,,SCT200,0.00,VWS V13.01,2013-07-10 17:15:00,
2013-07-10 12:30:00,90.0,77.1,30.03,SSW,199,0.0,4.0,66,0.00,,SCT200,0.00,VWS V13.01,2013-07-10 17:30:00,
2013-07-10 12:45:00,88.8,76.9,30.03,SSW,195,0.0,5.0,68,0.00,,SCT200,0.00,VWS V13.01,2013-07-10 17:45:00,
2013-07-10 13:00:00,87.8,78.9,30.02,SE,128,0.0,1.0,75,0.00,,SCT200,0.00,VWS V13.01,2013-07-10 18:00:00,
2013-07-10 13:15:00,85.0,77.4,30.03,NNW,336,0.0,6.0,78,0.07,,SCT200,0.07,VWS V13.01,2013-07-10 18:15:00,
2013-07-10 13:30:00,81.5,77.6,30.01,NNW,342,0.0,3.0,88,0.16,,SCT200,0.16,VWS V13.01,2013-07-10 18:30:00,
2013-07-10 13:45:00,80.0,76.8,30.00,NNW,342,0.0,0.0,90,0.16,,SCT200,0.16,VWS V13.01,2013-07-10 18:45:00,
2013-07-10 14:00:00,80.5,78.3,30.00,NNW,342,0.0,1.0,93,0.16,,SCT200,0.16,VWS V13.01,2013-07-10 19:00:00,
2013-07-10 14:15:00,82.7,78.1,30.00,SSW,209,0.0,3.0,86,0.16,,SCT200,0.16,VWS V13.01,2013-07-10 19:15:00,
2013-07-10 14:30:00,83.8,78.1,30.00,SSW,205,5.0,7.0,83,0.09,,SCT200,0.16,VWS V13.01,2013-07-10 19:30:00,
2013-07-10 14:45:00,82.4,77.4,29.99,SSE,149,0.0,9.0,85,0.00,,SCT200,0.16,VWS V13.01,2013-07-10 19:45:00,
2013-07-10 15:00:00,80.9,75.6,30.01,SSE,159,0.0,9.0,84,0.00,,SCT200,0.16,VWS V13.01,2013-07-10 20:00:00,
2013-07-10 15:15:00,79.8,74.9,30.00,SSW,212,0.0,3.0,85,0.00,,SCT200,0.16,VWS V13.01,2013-07-10 20:15:00,
2013-07-10 15:30:00,79.4,75.2,30.01,SSW,210,0.0,1.0,87,0.00,,SCT200,0.16,VWS V13.01,2013-07-10 20:30:00,
2013-07-10 15:45:00,79.1,75.6,30.01,SSW,210,0.0,1.0,89,0.00,,SCT200,0.16,VWS V13.01,2013-07-10 20:45:00,
2013-07-10 16:00:00,79.1,75.6,30.01,SSW,210,0.0,0.0,89,0.00,,SCT200,0.16,VWS V13.01,2013-07-10 21:00:00,
2013-07-10 16:15:00,78.9,75.4,30.02,SSW,210,0.0,0.0,89,0.00,,SCT200,0.16,VWS V13.01,2013-07-10 21:15:00,
2013-07-10 16:30:00,78.9,75.4,30.00,SSW,210,0.0,0.0,89,0.00,,SCT200,0.16,VWS V13.01,2013-07-10 21:30:00,
2013-07-10 16:45:00,78.9,75.4,30.01,SSW,210,0.0,0.0,89,0.00,,SCT200,0.16,VWS V13.01,2013-07-10 21:45:00,
2013-07-10 17:00:00,78.9,75.4,30.00,SSW,210,0.0,0.0,89,0.00,,SCT200,0.16,VWS V13.01,2013-07-10 22:00:00,
2013-07-10 17:15:00,78.9,75.4,30.00,SSW,210,0.0,0.0,89,0.00,,SCT200,0.16,VWS V13.01,2013-07-10 22:15:00,
2013-07-10 17:30:00,78.9,75.4,30.00,SSW,210,0.0,0.0,89,0.00,,SCT200,0.16,VWS V13.01,2013-07-10 22:30:00,
2013-07-10 17:45:00,78.9,75.4,30.00,SSW,210,0.0,0.0,89,0.00,,SCT200,0.16,VWS V13.01,2013-07-10 22:45:00,
2013-07-10 18:00:00,78.9,75.4,29.99,SSW,210,0.0,0.0,89,0.00,,SCT200,0.16,VWS V13.01,2013-07-10 23:00:00,
2013-07-10 18:15:00,78.9,75.4,29.99,SSW,210,0.0,0.0,89,0.00,,SCT200,0.16,VWS V13.01,2013-07-10 23:15:00,
2013-07-10 18:30:00,78.9,75.4,29.99,SSW,210,0.0,0.0,89,0.00,,SCT200,0.16,VWS V13.01,2013-07-10 23:30:00,
2013-07-10 18:45:00,78.9,75.4,29.98,SSW,210,0.0,0.0,89,0.00,,SCT200,0.16,VWS V13.01,2013-07-10 23:45:00,
2013-07-10 19:00:00,78.9,75.4,29.99,SSW,210,0.0,0.0,89,0.00,,SCT200,0.16,VWS V13.01,2013-07-11 00:00:00,
2013-07-10 19:15:00,78.9,75.4,29.98,SSW,210,0.0,0.0,89,0.00,,SCT200,0.16,VWS V13.01,2013-07-11 00:15:00,
2013-07-10 19:30:00,78.9,75.4,29.96,SSW,210,0.0,0.0,89,0.00,,SCT200,0.16,VWS V13.01,2013-07-11 00:30:00,
2013-07-10 19:45:00,78.9,75.4,29.96,SSW,210,0.0,0.0,89,0.00,,SCT200,0.16,VWS V13.01,2013-07-11 00:45:00,
2013-07-10 20:00:00,78.9,75.4,29.95,SSW,210,0.0,0.0,89,0.00,,SCT200,0.16,VWS V13.01,2013-07-11 01:00:00,
2013-07-10 20:15:00,78.9,75.4,29.96,SSW,210,0.0,0.0,89,0.00,,SCT200,0.16,VWS V13.01,2013-07-11 01:15:00,
2013-07-10 20:30:00,78.9,75.4,29.97,SSW,210,0.0,0.0,89,0.00,,SCT200,0.16,VWS V13.01,2013-07-11 01:30:00,
2013-07-10 20:45:00,78.9,75.4,29.98,SSW,210,0.0,0.0,89,0.00,,SCT200,0.16,VWS V13.01,2013-07-11 01:45:00,
2013-07-10 21:00:00,78.9,75.4,29.99,SSW,210,0.0,0.0,89,0.00,,SCT200,0.16,VWS V13.01,2013-07-11 02:00:00,
2013-07-10 21:15:00,78.9,75.4,29.98,SSW,210,0.0,0.0,89,0.00,,SCT200,0.16,VWS V13.01,2013-07-11 02:15:00,
2013-07-10 21:30:00,78.9,75.4,29.97,SSW,210,0.0,0.0,89,0.00,,SCT200,0.16,VWS V13.01,2013-07-11 02:30:00,
2013-07-10 21:45:00,78.9,75.4,29.97,SSW,210,0.0,0.0,89,0.00,,SCT200,0.16,VWS V13.01,2013-07-11 02:45:00,
2013-07-10 22:00:00,78.9,75.4,29.97,SSW,210,0.0,0.0,89,0.00,,SCT200,0.16,VWS V13.01,2013-07-11 03:00:00,
2013-07-10 22:15:00,78.9,75.4,29.97,SSW,210,0.0,0.0,89,0.00,,SCT200,0.16,VWS V13.01,2013-07-11 03:15:00,
2013-07-10 22:30:00,78.9,75.4,29.97,SSW,210,0.0,0.0,89,0.00,,SCT200,0.16,VWS V13.01,2013-07-11 03:30:00,
2013-07-10 22:45:00,78.9,75.4,29.97,SSW,210,0.0,0.0,89,0.00,,SCT200,0.16,VWS V13.01,2013-07-11 03:45:00,
2013-07-10 23:00:00,78.9,75.4,29.96,SSW,210,0.0,0.0,89,0.00,,SCT200,0.16,VWS V13.01,2013-07-11 04:00:00,
2013-07-10 23:15:00,78.9,75.4,29.96,SSW,210,0.0,0.0,89,0.00,,SCT200,0.16,VWS V13.01,2013-07-11 04:15:00,
2013-07-10 23:30:00,78.9,75.4,29.95,SSW,210,0.0,0.0,89,0.00,,SCT200,0.16,VWS V13.01,2013-07-11 04:30:00,
2013-07-10 23:45:00,78.9,75.4,29.95,SSW,210,0.0,0.0,89,0.00,,SCT200,0.16,VWS V13.01,2013-07-11 04:45:00,